DTTA

Tunis Carthage International Airport

Tunis, Tunisia
METAR DTTA 100600Z 30012KT 270V330 9999 SCT023 15/09 Q1022
Observed Flight Rules
Dec-10 @ 06:00 UTC (27 minutes ago) Visual Flight Rules
Wind Visibility Clouds
300° at 12 knots 10,000+ meters
  • Scattered at 2,300' AGL
Temperatures Readings
Current 15°C / 59°F
Dewpoint 9°C / 48°F
Humidity 68%
Altimeter 30.18" Hg
Pressure 1022 hPa
Elevation 4
METAR DTTA 100600Z 30012KT 270V330 9999 SCT023 15/09 Q1022
Observed Flight Rules
Dec-10 @ 06:00 UTC
(27 minutes ago)
VFR
Wind Visibility
300° at 12 knots 10,000+ meters
Clouds
  • Scattered at 2,300' AGL
Temperature Dewpoint
15°C / 59°F 9°C / 48°F
Humidity Altimeter Pressure
68% 30.18" Hg 1022 hPa